Time;durP1;ratioP1;P1;durP2;ratioP2;P2;SDS_P1;SDS_P2;PMS_P1;PMS_P2;Temp;Humidity;BMP_temperature;BMP_pressure;BME280_temperature;BME280_humidity;BME280_pressure;Samples;Min_cycle;Max_cycle;Signal;HPM_P1;HPM_P2
2021/09/27 00:00:54;;;;;;;26.40;12.90;;;;;;;15.35;100.00;96437.25;5075225;28;20451;-74
2021/09/27 00:03:19;;;;;;;26.48;13.02;;;;;;;15.46;100.00;96433.56;5038662;28;20452;-74
2021/09/27 00:05:48;;;;;;;24.15;11.85;;;;;;;15.43;100.00;96434.88;5037278;28;20427;-74
2021/09/27 00:08:15;;;;;;;27.17;13.88;;;;;;;15.43;100.00;96437.53;5054771;28;20044;-73
2021/09/27 00:10:43;;;;;;;21.58;11.93;;;;;;;15.37;100.00;96435.13;5054927;28;20516;-74
2021/09/27 00:13:10;;;;;;;26.10;12.60;;;;;;;15.36;100.00;96444.94;5055228;28;20037;-74
2021/09/27 00:15:39;;;;;;;23.25;11.63;;;;;;;15.38;100.00;96440.16;5035874;28;20076;-74
2021/09/27 00:18:06;;;;;;;24.83;13.02;;;;;;;15.34;100.00;96439.09;5054166;28;20044;-74
2021/09/27 00:20:35;;;;;;;26.00;13.10;;;;;;;15.38;100.00;96447.31;5054770;28;20029;-73
2021/09/27 00:23:00;;;;;;;27.92;12.88;;;;;;;15.33;100.00;96445.44;5054456;28;20049;-74
2021/09/27 00:25:29;;;;;;;25.35;13.18;;;;;;;15.31;100.00;96450.22;5054049;28;20088;-74
2021/09/27 00:27:55;;;;;;;25.30;12.73;;;;;;;15.32;100.00;96448.34;5053341;28;20053;-74
2021/09/27 00:30:21;;;;;;;28.25;12.40;;;;;;;15.27;100.00;96440.38;5054447;28;20041;-75
2021/09/27 00:32:49;;;;;;;26.33;12.68;;;;;;;15.20;100.00;96444.06;5054245;28;20047;-75
2021/09/27 00:35:19;;;;;;;24.70;13.02;;;;;;;15.12;100.00;96443.75;5054926;28;20061;-75
2021/09/27 00:37:45;;;;;;;25.30;12.13;;;;;;;15.12;100.00;96435.81;5036430;28;20041;-74
2021/09/27 00:40:18;;;;;;;28.13;13.35;;;;;;;15.09;100.00;96437.13;5053624;28;20451;-75
2021/09/27 00:42:45;;;;;;;29.95;13.95;;;;;;;15.02;100.00;96433.16;5053725;28;20045;-75
2021/09/27 00:45:12;;;;;;;25.98;13.07;;;;;;;15.00;100.00;96429.94;5036504;28;20255;-75
2021/09/27 00:47:39;;;;;;;27.45;14.82;;;;;;;14.96;100.00;96422.53;5053565;28;20040;-75
2021/09/27 00:50:09;;;;;;;33.88;13.80;;;;;;;15.04;100.00;96420.44;5053420;28;20443;-74
2021/09/27 00:52:34;;;;;;;33.72;15.35;;;;;;;14.98;100.00;96422.25;5036040;28;20139;-75
2021/09/27 00:55:02;;;;;;;31.67;14.68;;;;;;;14.92;100.00;96418.78;5054734;28;20071;-74
2021/09/27 00:57:28;;;;;;;32.22;15.70;;;;;;;14.91;100.00;96416.41;5035914;28;20051;-75
2021/09/27 00:59:56;;;;;;;33.45;15.57;;;;;;;14.84;100.00;96411.31;5060692;28;20049;-74
2021/09/27 01:02:23;;;;;;;34.78;15.57;;;;;;;14.77;100.00;96415.25;5036115;28;20044;-73
2021/09/27 01:04:49;;;;;;;30.13;14.60;;;;;;;14.73;100.00;96409.69;5052992;28;20044;-75
2021/09/27 01:07:24;;;;;;;32.20;14.10;;;;;;;15.01;100.00;96415.63;5053452;28;20052;-75
2021/09/27 01:10:07;;;;;;;30.17;13.32;;;;;;;14.84;100.00;96405.22;5053460;28;20504;-75
2021/09/27 01:12:51;;;;;;;28.27;13.57;;;;;;;14.84;100.00;96419.25;5053307;28;20105;-74
2021/09/27 01:15:25;;;;;;;28.40;13.18;;;;;;;14.83;100.00;96420.31;5053796;28;20397;-73
2021/09/27 01:18:03;;;;;;;26.50;13.48;;;;;;;14.88;100.00;96420.34;5052254;28;20037;-73
2021/09/27 01:21:00;;;;;;;28.65;13.52;;;;;;;14.91;100.00;96417.19;5053180;28;20124;-72
2021/09/27 01:24:07;;;;;;;29.05;12.70;;;;;;;14.92;100.00;96413.50;5035492;28;20067;-74
2021/09/27 01:27:07;;;;;;;28.92;13.60;;;;;;;14.91;100.00;96417.19;5036889;28;20097;-74
2021/09/27 01:29:52;;;;;;;28.55;14.30;;;;;;;14.94;100.00;96411.38;5035650;28;20044;-73
2021/09/27 01:32:31;;;;;;;33.80;15.23;;;;;;;15.00;100.00;96414.03;5053083;28;20048;-73
2021/09/27 01:35:09;;;;;;;33.70;16.05;;;;;;;14.98;100.00;96416.16;5052840;28;20052;-74
2021/09/27 01:37:39;;;;;;;;;;;;;;;15.04;100.00;96415.13;5053310;28;20041;-74
2021/09/27 01:40:15;;;;;;;32.55;15.25;;;;;;;15.10;100.00;96411.44;5054055;28;19928;-74
2021/09/27 01:42:51;;;;;;;29.33;14.30;;;;;;;15.09;100.00;96407.22;5054947;28;20146;-73
2021/09/27 01:45:26;;;;;;;32.63;15.55;;;;;;;15.12;100.00;96406.66;5053296;28;20131;-74
2021/09/27 01:48:04;;;;;;;34.28;15.52;;;;;;;15.13;100.00;96403.78;5052955;28;20382;-74
2021/09/27 01:50:36;;;;;;;31.80;14.90;;;;;;;15.13;100.00;96397.69;5053063;28;20446;-74
2021/09/27 01:53:07;;;;;;;32.65;14.93;;;;;;;15.25;100.00;96400.09;5053090;28;20130;-74
2021/09/27 01:55:43;;;;;;;30.70;14.55;;;;;;;15.26;100.00;96386.59;5053152;28;20063;-73
2021/09/27 01:58:15;;;;;;;31.00;14.55;;;;;;;15.33;100.00;96391.63;5052569;28;20378;-74
2021/09/27 02:00:50;;;;;;;29.30;13.75;;;;;;;15.23;100.00;96403.03;5052919;28;20507;-74
2021/09/27 02:03:26;;;;;;;28.92;14.57;;;;;;;15.23;100.00;96408.31;5052985;28;20053;-74
2021/09/27 02:06:00;;;;;;;29.60;14.20;;;;;;;15.10;100.00;96411.44;5053263;28;20058;-74
2021/09/27 02:08:33;;;;;;;28.65;14.95;;;;;;;15.10;100.00;96406.94;5055525;28;20106;-73
2021/09/27 02:11:05;;;;;;;28.80;14.65;;;;;;;14.98;100.00;96405.56;5054788;28;20045;-73
2021/09/27 02:13:38;;;;;;;33.28;15.05;;;;;;;14.88;100.00;96403.66;5052542;28;20047;-74
2021/09/27 02:16:10;;;;;;;33.00;15.13;;;;;;;14.88;100.00;96403.66;5038922;28;20041;-72
2021/09/27 02:18:43;;;;;;;30.83;15.50;;;;;;;14.87;100.00;96400.22;5056294;28;20041;-72
2021/09/27 02:21:17;;;;;;;30.00;14.63;;;;;;;14.84;100.00;96390.13;5059018;28;20075;-73
2021/09/27 02:23:49;;;;;;;34.22;15.63;;;;;;;14.79;100.00;96390.09;5048598;28;20041;-73
2021/09/27 02:26:18;;;;;;;32.83;15.73;;;;;;;14.65;100.00;96383.69;5066967;28;20044;-74
2021/09/27 02:28:44;;;;;;;32.35;15.75;;;;;;;14.61;100.00;96385.25;5051209;28;20037;-73
2021/09/27 02:31:19;;;;;;;37.40;16.52;;;;;;;14.49;100.00;96389.97;5072311;28;20044;-73
2021/09/27 02:33:55;;;;;;;35.90;17.15;;;;;;;14.45;100.00;96392.28;5054546;28;20041;-73
2021/09/27 02:36:25;;;;;;;37.60;17.45;;;;;;;14.41;100.00;96397.28;5063394;28;20063;-74
2021/09/27 02:39:03;;;;;;;37.83;17.50;;;;;;;14.35;100.00;96400.94;5056244;28;20049;-74
2021/09/27 02:41:35;;;;;;;36.15;17.08;;;;;;;14.30;100.00;96400.91;5056612;28;20512;-74
2021/09/27 02:44:01;;;;;;;37.20;16.80;;;;;;;14.24;100.00;96396.63;5038193;28;20041;-74
2021/09/27 02:46:29;;;;;;;38.08;16.77;;;;;;;14.16;100.00;96394.47;5037682;28;20122;-74
2021/09/27 02:49:12;;;;;;;37.92;16.88;;;;;;;14.21;100.00;96391.06;5055860;28;20025;-74
2021/09/27 02:51:38;;;;;;;37.38;17.42;;;;;;;14.28;100.00;96395.09;5057556;28;20045;-73
2021/09/27 02:54:05;;;;;;;40.47;17.58;;;;;;;14.20;100.00;96384.97;5056676;28;20101;-74
2021/09/27 02:56:58;;;;;;;37.25;17.02;;;;;;;14.14;100.00;96386.78;5055797;28;20090;-75
2021/09/27 02:59:34;;;;;;;41.10;16.83;;;;;;;14.14;100.00;96381.47;5038577;28;20067;-74
2021/09/27 03:02:10;;;;;;;37.72;16.67;;;;;;;14.14;100.00;96391.28;5038258;28;20041;-74
2021/09/27 03:04:50;;;;;;;43.17;18.02;;;;;;;14.08;100.00;96389.66;5038416;28;20127;-74
2021/09/27 03:07:29;;;;;;;40.47;17.48;;;;;;;14.06;100.00;96384.63;5055647;28;20041;-74
2021/09/27 03:10:12;;;;;;;41.47;17.25;;;;;;;14.02;100.00;96382.72;5055694;28;20554;-74
2021/09/27 03:12:44;;;;;;;37.60;17.35;;;;;;;14.03;100.00;96389.59;5056325;28;20040;-74
2021/09/27 03:15:35;;;;;;;45.17;17.83;;;;;;;14.03;100.00;96393.03;5038256;28;20509;-74
2021/09/27 03:18:12;;;;;;;42.83;17.95;;;;;;;14.11;100.00;96386.50;5055738;28;20041;-74
2021/09/27 03:21:15;;;;;;;39.97;18.08;;;;;;;14.13;100.00;96392.31;5037760;28;20096;-74
2021/09/27 03:24:08;;;;;;;39.97;17.40;;;;;;;14.17;100.00;96394.22;5055433;28;20052;-74
2021/09/27 03:26:43;;;;;;;41.28;16.52;;;;;;;14.23;100.00;96395.06;5055265;28;20068;-75
2021/09/27 03:29:23;;;;;;;41.00;17.88;;;;;;;14.21;100.00;96391.88;5055293;28;20048;-74
2021/09/27 03:31:57;;;;;;;46.67;17.33;;;;;;;14.28;100.00;96392.44;5055369;28;20044;-75
2021/09/27 03:34:30;;;;;;;44.30;18.17;;;;;;;14.32;100.00;96384.81;5038033;28;20559;-75
2021/09/27 03:37:16;;;;;;;35.97;17.13;;;;;;;14.44;100.00;96391.50;5055641;28;20043;-75
2021/09/27 03:39:48;;;;;;;34.80;15.45;;;;;;;14.47;100.00;96389.38;5054705;28;20404;-74
2021/09/27 03:42:23;;;;;;;41.00;16.80;;;;;;;14.48;100.00;96396.31;5059433;28;20053;-74
2021/09/27 03:44:55;;;;;;;34.55;16.70;;;;;;;14.49;100.00;96398.69;5050861;28;20037;-73
2021/09/27 03:47:28;;;;;;;38.53;17.58;;;;;;;14.54;100.00;96395.28;5073283;28;20037;-74
2021/09/27 03:50:00;;;;;;;33.45;16.70;;;;;;;14.69;100.00;96398.03;5058454;28;20049;-75
2021/09/27 03:52:36;;;;;;;34.80;16.20;;;;;;;14.69;100.00;96392.72;5057304;28;20105;-75
2021/09/27 03:55:11;;;;;;;32.97;15.25;;;;;;;14.68;100.00;96396.41;5055825;28;20069;-74
2021/09/27 03:57:43;;;;;;;34.85;16.67;;;;;;;14.73;100.00;96399.09;5055089;28;20079;-75
2021/09/27 04:00:15;;;;;;;36.83;17.48;;;;;;;14.75;100.00;96391.69;5055159;28;20037;-74
2021/09/27 04:02:45;;;;;;;36.85;16.63;;;;;;;14.72;100.00;96400.13;5055142;28;20056;-75
2021/09/27 04:05:17;;;;;;;34.25;16.27;;;;;;;14.72;100.00;96404.66;5054604;28;20075;-75
2021/09/27 04:07:56;;;;;;;36.10;16.80;;;;;;;14.75;100.00;96407.59;5054500;28;20505;-74
2021/09/27 04:10:30;;;;;;;36.22;17.17;;;;;;;14.83;100.00;96407.09;5055102;28;20047;-75
2021/09/27 04:13:09;;;;;;;39.90;17.27;;;;;;;14.66;100.00;96403.81;5036769;28;20489;-75
2021/09/27 04:15:55;;;;;;;41.88;17.45;;;;;;;14.71;100.00;96406.50;5055557;28;20041;-75
2021/09/27 04:18:28;;;;;;;37.03;16.55;;;;;;;14.73;100.00;96404.38;5055026;28;20044;-74
2021/09/27 04:21:05;;;;;;;37.13;16.65;;;;;;;14.76;100.00;96403.09;5055362;28;20025;-75
2021/09/27 04:23:54;;;;;;;37.67;16.92;;;;;;;14.63;100.00;96405.13;5055463;28;20031;-76
2021/09/27 04:26:32;;;;;;;34.20;16.85;;;;;;;14.64;100.00;96413.88;5054136;28;20508;-75
2021/09/27 04:29:33;;;;;;;35.45;17.02;;;;;;;14.66;100.00;96406.47;5054098;28;20041;-75
2021/09/27 04:32:07;;;;;;;37.45;16.95;;;;;;;14.59;100.00;96408.56;5033159;28;20052;-73
2021/09/27 04:34:57;;;;;;;37.75;17.10;;;;;;;14.63;100.00;96405.13;5055183;28;20037;-75
2021/09/27 04:37:24;;;;;;;33.58;16.17;;;;;;;14.57;100.00;96413.28;5036582;28;20045;-75
2021/09/27 04:39:51;;;;;;;33.93;15.80;;;;;;;14.63;100.00;96404.31;5054340;28;20060;-74
2021/09/27 04:42:56;;;;;;;34.83;16.23;;;;;;;14.63;100.00;96405.13;5055393;28;20258;-75
2021/09/27 04:45:41;;;;;;;35.30;16.80;;;;;;;14.63;100.00;96404.31;5054924;28;20281;-75
2021/09/27 04:48:15;;;;;;;33.83;15.40;;;;;;;14.66;100.00;96406.47;5058066;28;20040;-73
2021/09/27 04:51:00;;;;;;;39.35;16.10;;;;;;;14.54;100.00;96406.66;5038386;28;20048;-74
2021/09/27 04:53:57;;;;;;;38.45;18.15;;;;;;;14.64;100.00;96403.28;5059721;28;20154;-72
2021/09/27 04:56:33;;;;;;;39.97;18.08;;;;;;;14.56;100.00;96393.16;5056049;28;20041;-75
2021/09/27 04:59:14;;;;;;;39.50;16.65;;;;;;;14.54;100.00;96395.28;5037407;28;20095;-74
2021/09/27 05:02:03;;;;;;;36.88;16.30;;;;;;;14.53;100.00;96398.97;5054729;28;20037;-74
2021/09/27 05:04:38;;;;;;;37.83;16.83;;;;;;;14.45;100.00;96397.56;5054285;28;20044;-73
2021/09/27 05:07:32;;;;;;;39.45;17.13;;;;;;;14.60;100.00;96395.06;5053860;28;20440;-74
2021/09/27 05:10:13;;;;;;;38.97;16.52;;;;;;;14.60;100.00;96396.91;5087102;22;20052;-83
2021/09/27 05:13:02;;;;;;;35.40;16.67;;;;;;;14.45;100.00;96395.72;5079103;28;20037;-83
2021/09/27 05:15:51;;;;;;;36.40;16.30;;;;;;;14.55;100.00;96391.59;5085645;28;20060;-82
2021/09/27 05:18:49;;;;;;;37.05;16.42;;;;;;;14.47;100.00;96390.19;5079178;28;20234;-83
2021/09/27 05:21:45;;;;;;;36.03;15.40;;;;;;;14.53;100.00;96396.31;5063043;28;20033;-83
2021/09/27 05:24:33;;;;;;;34.80;16.30;;;;;;;14.51;100.00;96396.59;5077356;28;20071;-84
2021/09/27 05:27:26;;;;;;;36.58;16.77;;;;;;;14.51;100.00;96401.09;5087645;28;20083;-83
2021/09/27 05:30:06;;;;;;;37.80;17.00;;;;;;;14.59;100.00;96400.63;5064396;28;20045;-82
2021/09/27 05:32:41;;;;;;;34.88;16.45;;;;;;;14.52;100.00;96397.38;5060245;28;20041;-79
2021/09/27 05:35:26;;;;;;;41.05;17.92;;;;;;;14.40;100.00;96400.97;5057821;28;20060;-82
2021/09/27 05:38:03;;;;;;;37.20;15.88;;;;;;;14.45;100.00;96411.59;5060509;28;20428;-81
2021/09/27 05:40:33;;;;;;;37.17;16.17;;;;;;;14.41;100.00;96404.44;5075262;28;20072;-82
2021/09/27 05:43:15;;;;;;;39.78;17.33;;;;;;;14.47;100.00;96400.78;5078224;28;20033;-81
2021/09/27 05:45:56;;;;;;;43.25;18.15;;;;;;;14.50;100.00;96402.13;5078566;28;20046;-81
2021/09/27 05:48:30;;;;;;;37.60;17.38;;;;;;;14.61;100.00;96409.88;5060138;28;20116;-82
2021/09/27 05:51:04;;;;;;;43.58;17.83;;;;;;;14.61;100.00;96409.09;5059759;28;20056;-81
2021/09/27 05:53:40;;;;;;;36.30;17.05;;;;;;;14.64;100.00;96403.28;5059855;28;20427;-84
2021/09/27 05:56:12;;;;;;;37.60;17.08;;;;;;;14.63;100.00;96412.25;5081230;28;20113;-81
2021/09/27 05:58:48;;;;;;;40.40;17.40;;;;;;;14.55;100.00;96408.25;5066244;28;20460;-81
2021/09/27 06:01:24;;;;;;;47.10;19.25;;;;;;;14.62;100.00;96402.72;5069136;28;20036;-82
2021/09/27 06:04:01;;;;;;;44.70;19.23;;;;;;;14.67;100.00;96405.41;5070206;28;20095;-81
2021/09/27 06:06:35;;;;;;;46.63;20.60;;;;;;;14.64;100.00;96401.44;5073329;28;20069;-82
2021/09/27 06:09:18;;;;;;;53.10;20.52;;;;;;;14.85;100.00;96407.63;5070837;28;20117;-80
2021/09/27 06:11:54;;;;;;;48.58;20.85;;;;;;;14.96;100.00;96405.84;5068513;28;20067;-80
2021/09/27 06:14:22;;;;;;;45.50;18.73;;;;;;;14.98;98.26;96410.88;5070855;28;20033;-82
2021/09/27 06:17:16;;;;;;;45.55;19.23;;;;;;;14.94;98.89;96406.06;5087014;28;20041;-80
2021/09/27 06:19:46;;;;;;;42.60;18.00;;;;;;;14.93;98.81;96414.28;5066736;28;20132;-80
2021/09/27 06:22:21;;;;;;;40.92;19.70;;;;;;;14.95;98.44;96407.66;5068978;28;20045;-81
2021/09/27 06:25:01;;;;;;;41.35;19.15;;;;;;;15.12;97.71;96410.16;5067438;28;20045;-83
2021/09/27 06:27:40;;;;;;;43.20;19.27;;;;;;;14.88;98.00;96409.75;5067231;28;20080;-83
2021/09/27 06:30:17;;;;;;;45.38;18.65;;;;;;;14.91;97.81;96421.69;5069950;28;20116;-82
2021/09/27 06:32:51;;;;;;;48.25;19.83;;;;;;;14.82;98.47;96423.25;5064429;28;20045;-80
2021/09/27 06:35:19;;;;;;;44.55;19.73;;;;;;;14.89;97.61;96419.28;5074079;28;20104;-85
2021/09/27 06:37:48;;;;;;;44.65;19.08;;;;;;;14.94;97.81;96424.63;5072702;28;20037;-82
2021/09/27 06:40:14;;;;;;;46.00;20.27;;;;;;;14.89;97.04;96421.94;5072509;28;20021;-86
2021/09/27 06:42:42;;;;;;;50.53;21.98;;;;;;;15.01;96.66;96415.63;5080313;28;20059;-84
2021/09/27 06:45:08;;;;;;;;;;;;;;;14.98;97.06;96427.56;5086334;28;20128;-81
2021/09/27 06:47:34;;;;;;;45.85;18.55;;;;;;;14.84;97.33;96427.22;5073815;28;19908;-85
2021/09/27 06:50:02;;;;;;;50.72;21.25;;;;;;;15.14;96.74;96428.41;5161988;22;20059;-84
2021/09/27 06:52:28;;;;;;;48.17;20.10;;;;;;;15.26;95.90;96425.53;5095969;28;20041;-80
2021/09/27 06:54:54;;;;;;;44.00;19.35;;;;;;;15.30;95.58;96424.78;5090082;28;20583;-82
2021/09/27 06:57:22;;;;;;;47.22;19.38;;;;;;;15.36;95.06;96426.38;5083541;28;20045;-83
2021/09/27 06:59:48;;;;;;;40.90;18.85;;;;;;;15.31;95.16;96430.88;5085248;28;20049;-83
2021/09/27 07:02:17;;;;;;;44.78;18.83;;;;;;;15.43;94.75;96426.91;5083733;28;20519;-82
2021/09/27 07:04:43;;;;;;;40.92;16.98;;;;;;;15.51;94.75;96422.19;5086103;22;20072;-76
2021/09/27 07:07:10;;;;;;;39.67;17.35;;;;;;;15.56;94.38;96424.84;5056979;28;20098;-75
2021/09/27 07:09:38;;;;;;;40.10;17.10;;;;;;;15.40;94.17;96424.81;5057114;28;20045;-75
2021/09/27 07:12:05;;;;;;;38.80;17.25;;;;;;;15.21;95.15;96421.81;5057704;28;20382;-75
2021/09/27 07:14:30;;;;;;;39.75;16.55;;;;;;;15.48;94.48;96421.63;5057030;28;20049;-77
2021/09/27 07:16:56;;;;;;;36.47;16.73;;;;;;;15.69;93.22;96421.72;5057260;28;20087;-76
2021/09/27 07:19:22;;;;;;;36.08;16.55;;;;;;;15.86;91.81;96424.13;5056165;28;20048;-77
2021/09/27 07:21:47;;;;;;;36.17;16.27;;;;;;;15.90;91.56;96418.03;5057607;28;20040;-76
2021/09/27 07:24:15;;;;;;;33.63;16.15;;;;;;;15.96;90.98;96430.25;5057008;28;20060;-76
2021/09/27 07:26:41;;;;;;;30.77;15.15;;;;;;;16.07;89.83;96422.28;5057515;28;20037;-76
2021/09/27 07:29:10;;;;;;;32.20;16.42;;;;;;;16.11;89.99;96432.09;5038932;28;20436;-74
2021/09/27 07:31:36;;;;;;;37.22;17.27;;;;;;;15.97;90.52;96423.06;5039140;28;20095;-75
2021/09/27 07:34:05;;;;;;;36.25;19.00;;;;;;;15.99;90.13;96431.59;5055456;28;20045;-75
2021/09/27 07:36:30;;;;;;;33.78;16.30;;;;;;;16.25;89.61;96424.41;5057035;28;20444;-76
2021/09/27 07:38:56;;;;;;;36.58;18.08;;;;;;;16.29;88.63;96417.50;5057464;28;20037;-77
2021/09/27 07:41:25;;;;;;;34.28;17.08;;;;;;;16.24;88.37;96417.50;5073507;28;20040;-77
2021/09/27 07:43:51;;;;;;;34.47;16.95;;;;;;;16.20;88.59;96411.94;5078172;28;20040;-77
2021/09/27 07:46:18;;;;;;;34.00;17.88;;;;;;;16.21;88.37;96420.69;5073386;28;20049;-78
2021/09/27 07:48:44;;;;;;;36.63;17.38;;;;;;;16.17;88.75;96422.28;5042570;28;20317;-77
2021/09/27 07:51:10;;;;;;;34.63;17.33;;;;;;;16.36;88.39;96415.41;5058003;28;20512;-76
2021/09/27 07:53:36;;;;;;;33.97;16.67;;;;;;;16.47;87.71;96416.97;5056697;28;20076;-75
2021/09/27 07:56:01;;;;;;;31.48;15.20;;;;;;;16.40;87.87;96411.13;5055507;28;20041;-76
2021/09/27 07:58:29;;;;;;;31.02;16.08;;;;;;;16.29;87.18;96417.50;5056489;28;20045;-76
2021/09/27 08:00:54;;;;;;;27.20;15.25;;;;;;;16.63;85.39;96414.25;5056720;28;20041;-75
2021/09/27 08:03:20;;;;;;;26.27;14.25;;;;;;;16.34;86.15;96417.50;5056019;28;20051;-75
2021/09/27 08:05:47;;;;;;;29.05;15.85;;;;;;;16.17;87.27;96411.69;5037835;28;20114;-76
2021/09/27 08:08:12;;;;;;;26.90;14.90;;;;;;;16.42;86.11;96409.00;5056137;28;20059;-75
2021/09/27 08:10:41;;;;;;;28.75;14.80;;;;;;;16.78;85.02;96407.09;5057916;28;20119;-76
2021/09/27 08:13:08;;;;;;;26.48;14.55;;;;;;;16.93;85.03;96408.13;5056873;28;20041;-76
2021/09/27 08:15:38;;;;;;;27.27;15.13;;;;;;;17.18;82.67;96402.72;5056174;28;20067;-74
2021/09/27 08:18:06;;;;;;;24.77;13.90;;;;;;;17.33;81.51;96404.50;5056108;28;20059;-76
2021/09/27 08:20:34;;;;;;;25.63;13.23;;;;;;;17.31;81.47;96401.31;5056560;28;20041;-77
2021/09/27 08:23:02;;;;;;;25.00;13.93;;;;;;;17.28;81.59;96399.22;5055515;28;20417;-76
2021/09/27 08:25:28;;;;;;;23.33;13.30;;;;;;;17.45;80.93;96402.31;5054600;28;20071;-76
2021/09/27 08:27:55;;;;;;;22.27;13.15;;;;;;;17.68;80.21;96408.81;5054830;28;20053;-77
2021/09/27 08:30:24;;;;;;;24.67;13.98;;;;;;;17.49;80.90;96400.69;5037885;28;20092;-76
2021/09/27 08:32:51;;;;;;;23.20;12.73;;;;;;;17.85;79.33;96392.50;5038061;28;20127;-75
2021/09/27 08:35:19;;;;;;;24.80;13.73;;;;;;;17.68;79.73;96402.72;5055859;28;20116;-75
2021/09/27 08:37:47;;;;;;;25.20;12.93;;;;;;;17.72;80.09;96401.09;5056982;28;20059;-76
2021/09/27 08:40:37;;;;;;;22.40;12.20;;;;;;;18.17;79.05;96401.84;5057718;28;20508;-75
2021/09/27 08:43:18;;;;;;;22.45;13.10;;;;;;;18.06;78.74;96409.91;5056178;28;20142;-76
2021/09/27 08:45:45;;;;;;;22.98;12.38;;;;;;;18.37;77.65;96404.34;5055322;28;20540;-77
2021/09/27 08:48:25;;;;;;;22.50;12.43;;;;;;;18.39;76.83;96406.72;5055351;28;20065;-78
2021/09/27 08:50:50;;;;;;;21.00;11.65;;;;;;;18.63;76.48;96408.34;5055053;28;20525;-75
2021/09/27 08:53:28;;;;;;;22.42;12.93;;;;;;;18.53;76.50;96408.44;5054938;28;20059;-76
2021/09/27 08:56:00;;;;;;;22.95;12.32;;;;;;;18.81;75.56;96416.72;5054931;28;20033;-76
2021/09/27 08:58:37;;;;;;;20.75;11.88;;;;;;;18.73;75.66;96414.69;5055296;28;20460;-76
2021/09/27 09:01:06;;;;;;;;;;;;;;;18.70;76.23;96412.59;5055665;28;20040;-76
2021/09/27 09:03:48;;;;;;;22.20;11.27;;;;;;;18.68;75.14;96412.88;5055367;28;20012;-75
2021/09/27 09:06:22;;;;;;;21.02;11.32;;;;;;;18.68;75.67;96412.88;5054607;28;20527;-76
2021/09/27 09:08:54;;;;;;;21.85;10.43;;;;;;;18.89;74.63;96410.78;5054285;28;20045;-75
2021/09/27 09:11:30;;;;;;;20.50;10.95;;;;;;;19.30;73.41;96420.97;5037642;28;20102;-76
2021/09/27 09:14:02;;;;;;;21.58;11.27;;;;;;;19.20;73.49;96410.41;5054742;28;20517;-76
2021/09/27 09:16:29;;;;;;;17.65;10.40;;;;;;;19.33;73.18;96412.41;5060668;28;20052;-76
2021/09/27 09:18:59;;;;;;;19.50;10.63;;;;;;;19.24;73.06;96411.44;5056036;28;20118;-76
2021/09/27 09:21:39;;;;;;;18.80;10.25;;;;;;;19.03;72.95;96422.34;5055144;28;20154;-74
2021/09/27 09:24:07;;;;;;;18.40;9.80;;;;;;;18.74;73.81;96417.06;5071773;28;20027;-75
2021/09/27 09:26:35;;;;;;;16.90;10.25;;;;;;;18.68;73.96;96417.41;5074589;28;20064;-77
2021/09/27 09:29:06;;;;;;;18.15;10.38;;;;;;;18.35;75.53;96422.47;5057245;28;20045;-76
2021/09/27 09:31:35;;;;;;;19.30;10.57;;;;;;;18.54;75.09;96420.69;5069506;28;20069;-78
2021/09/27 09:34:05;;;;;;;18.60;10.40;;;;;;;18.56;74.99;96415.06;5047045;28;20040;-76
2021/09/27 09:36:37;;;;;;;16.25;9.60;;;;;;;18.74;74.36;96413.63;5058921;28;20068;-76
2021/09/27 09:39:14;;;;;;;15.20;9.02;;;;;;;18.78;74.02;96404.78;5057611;28;20136;-77
2021/09/27 09:41:45;;;;;;;17.58;9.50;;;;;;;18.95;73.57;96399.00;5042165;28;20071;-75
2021/09/27 09:44:21;;;;;;;17.17;9.25;;;;;;;19.03;72.59;96406.34;5059597;28;20044;-75
2021/09/27 09:46:57;;;;;;;15.73;8.98;;;;;;;19.15;71.74;96392.59;5041754;28;20045;-75
2021/09/27 09:49:25;;;;;;;17.45;9.05;;;;;;;19.22;71.56;96408.28;5041618;28;20440;-76
2021/09/27 09:51:58;;;;;;;14.43;8.57;;;;;;;19.30;71.59;96399.63;5042078;28;20534;-75
2021/09/27 09:54:26;;;;;;;15.60;8.60;;;;;;;19.40;71.09;96394.16;5059366;28;20048;-73
2021/09/27 09:57:05;;;;;;;18.38;9.40;;;;;;;19.52;71.10;96402.53;5058696;28;20048;-76
2021/09/27 09:59:33;;;;;;;14.98;8.05;;;;;;;19.57;70.74;96399.78;5041389;28;20040;-75
2021/09/27 10:02:01;;;;;;;15.13;8.32;;;;;;;19.53;71.20;96398.78;5059660;28;20041;-75
2021/09/27 10:04:36;;;;;;;13.88;8.02;;;;;;;19.56;70.36;96406.22;5059175;28;20036;-75
2021/09/27 10:07:13;;;;;;;12.93;7.22;;;;;;;19.58;69.14;96401.38;5059039;28;20057;-76
2021/09/27 10:09:55;;;;;;;13.30;7.80;;;;;;;19.76;68.75;96394.50;5041236;28;20053;-77
2021/09/27 10:12:47;;;;;;;13.75;7.57;;;;;;;19.76;68.24;96402.50;5059380;28;20452;-77
2021/09/27 10:15:34;;;;;;;12.77;7.38;;;;;;;19.96;67.87;96396.03;5041070;28;20053;-76
2021/09/27 10:18:03;;;;;;;14.55;8.73;;;;;;;20.09;67.94;96394.53;5058929;28;20041;-76
2021/09/27 10:20:34;;;;;;;16.70;10.38;;;;;;;20.25;66.86;96395.84;5058738;28;20456;-77
2021/09/27 10:23:04;;;;;;;14.73;7.72;;;;;;;20.22;66.38;96392.97;5059367;28;20096;-77
2021/09/27 10:25:35;;;;;;;14.00;7.35;;;;;;;20.09;66.99;96392.66;5041403;28;20100;-76
2021/09/27 10:28:05;;;;;;;13.60;7.63;;;;;;;20.17;67.86;96386.63;5059173;28;20048;-77
2021/09/27 10:30:38;;;;;;;18.02;7.43;;;;;;;20.60;66.56;96389.13;5040154;28;20124;-77
2021/09/27 10:33:14;;;;;;;12.48;7.35;;;;;;;20.49;66.56;96386.94;5040369;28;20106;-76
2021/09/27 10:35:51;;;;;;;12.57;6.97;;;;;;;20.42;65.85;96392.63;5061769;28;20052;-75
2021/09/27 10:38:22;;;;;;;14.37;7.03;;;;;;;20.54;65.23;96387.63;5058646;28;20041;-74
2021/09/27 10:40:50;;;;;;;12.80;7.55;;;;;;;20.58;65.55;96380.63;5058235;28;20088;-75
2021/09/27 10:43:20;;;;;;;;;;;;;;;20.73;64.90;96382.22;5057997;28;20067;-77
2021/09/27 10:45:49;;;;;;;11.90;6.28;;;;;;;20.73;64.21;96381.44;5057387;28;19909;-76
2021/09/27 10:48:18;;;;;;;11.43;5.95;;;;;;;20.97;63.77;96376.66;5057349;28;20045;-77
2021/09/27 10:50:46;;;;;;;12.57;6.30;;;;;;;20.98;63.99;96380.91;5057174;28;20037;-76
2021/09/27 10:53:19;;;;;;;11.10;4.90;;;;;;;21.10;62.82;96373.22;5057301;28;20408;-76
2021/09/27 10:55:52;;;;;;;11.45;6.30;;;;;;;21.01;62.93;96371.53;5056908;28;20500;-76
2021/09/27 10:58:33;;;;;;;11.25;5.30;;;;;;;21.04;62.54;96376.25;5056925;28;20143;-76
2021/09/27 11:00:59;;;;;;;10.20;5.05;;;;;;;21.01;62.09;96369.63;5046535;28;20059;-78
2021/09/27 11:03:31;;;;;;;10.75;4.85;;;;;;;21.10;62.28;96369.75;5058377;28;20049;-76
2021/09/27 11:06:00;;;;;;;10.68;5.13;;;;;;;21.11;61.14;96369.44;5057687;28;20045;-75
2021/09/27 11:08:40;;;;;;;9.45;4.80;;;;;;;20.95;61.62;96368.16;5058706;28;20105;-77
2021/09/27 11:11:22;;;;;;;10.00;5.15;;;;;;;21.11;61.37;96358.75;5058791;28;20041;-76
2021/09/27 11:13:47;;;;;;;10.35;4.38;;;;;;;21.30;61.10;96360.50;5056988;28;20607;-77
2021/09/27 11:16:19;;;;;;;11.77;5.32;;;;;;;21.36;59.72;96361.97;5057599;28;20130;-77
2021/09/27 11:18:57;;;;;;;10.52;4.97;;;;;;;21.49;59.04;96356.59;5058088;28;20069;-74
2021/09/27 11:21:42;;;;;;;9.80;4.25;;;;;;;21.59;58.83;96355.59;5057308;28;20076;-77
2021/09/27 11:25:05;;;;;;;9.15;4.32;;;;;;;21.60;58.75;96351.03;5057144;28;20236;-77
2021/09/27 11:27:35;;;;;;;9.38;3.75;;;;;;;21.81;57.04;96346.00;5065546;28;20052;-78
2021/09/27 11:30:25;;;;;;;9.43;4.18;;;;;;;21.76;57.60;96352.25;5073637;28;20032;-77
2021/09/27 11:32:53;;;;;;;8.63;3.63;;;;;;;21.78;56.15;96341.25;5058907;28;20095;-76
2021/09/27 11:35:47;;;;;;;8.90;3.65;;;;;;;21.66;56.00;96349.81;5057956;28;20041;-76
2021/09/27 11:38:29;;;;;;;8.55;4.13;;;;;;;21.62;56.93;96357.66;5014078;28;20056;-76
2021/09/27 11:41:03;;;;;;;11.52;4.22;;;;;;;21.87;57.53;96350.13;5066167;28;20049;-76
2021/09/27 11:43:35;;;;;;;8.73;3.92;;;;;;;21.95;56.69;96344.03;5070915;28;20060;-76
2021/09/27 11:46:21;;;;;;;10.95;3.90;;;;;;;22.08;57.02;96350.44;5060363;28;20438;-76
2021/09/27 11:48:55;;;;;;;9.02;4.03;;;;;;;22.25;56.64;96345.22;5057990;28;20124;-76